createdAt,value
2017-09-27T00:00:43.834Z,6.3
2017-09-27T00:01:45.451Z,6.7
2017-09-27T00:02:47.070Z,7.5
2017-09-27T00:03:48.690Z,7.0
2017-09-27T00:04:50.311Z,6.6
2017-09-27T00:05:51.932Z,7.5
2017-09-27T00:06:53.555Z,7.3
2017-09-27T00:07:55.175Z,6.9
2017-09-27T00:08:56.792Z,6.9
2017-09-27T00:09:58.415Z,7.3
2017-09-27T00:11:00.045Z,7.2
2017-09-27T00:12:01.668Z,7.3
2017-09-27T00:13:03.287Z,7.0
2017-09-27T00:14:04.910Z,6.9
2017-09-27T00:15:06.528Z,6.8
2017-09-27T00:16:08.148Z,7.1
2017-09-27T00:17:09.775Z,6.8
2017-09-27T00:18:11.393Z,7.3
2017-09-27T00:19:13.013Z,7.1
2017-09-27T00:20:14.632Z,6.1
2017-09-27T00:21:16.257Z,6.5
2017-09-27T00:22:17.870Z,6.8
2017-09-27T00:23:19.490Z,6.9
2017-09-27T00:24:21.108Z,6.3
2017-09-27T00:25:22.727Z,7.1
2017-09-27T00:26:24.374Z,7.1
2017-09-27T00:27:25.974Z,6.9
2017-09-27T00:28:27.598Z,7.1
2017-09-27T00:29:29.215Z,6.6
2017-09-27T00:30:30.835Z,7.3
2017-09-27T00:31:32.455Z,7.0
2017-09-27T00:32:34.074Z,7.0
2017-09-27T00:33:35.694Z,6.4
2017-09-27T00:34:37.314Z,7.1
2017-09-27T00:35:38.937Z,7.1
2017-09-27T00:36:40.555Z,6.7
2017-09-27T00:37:42.176Z,6.8
2017-09-27T00:38:43.797Z,7.1
2017-09-27T00:39:45.417Z,6.9
2017-09-27T00:40:47.037Z,7.3
2017-09-27T00:41:48.656Z,7.2
2017-09-27T00:42:50.278Z,6.5
2017-09-27T00:43:51.895Z,6.8
2017-09-27T00:44:53.515Z,6.3
2017-09-27T00:45:55.134Z,6.5
2017-09-27T00:46:56.755Z,6.1
2017-09-27T00:47:58.376Z,6.3
2017-09-27T00:48:59.995Z,6.4
2017-09-27T00:50:01.617Z,6.0
2017-09-27T00:51:03.235Z,5.5
2017-09-27T00:52:04.853Z,6.5
2017-09-27T00:53:06.472Z,6.6
2017-09-27T00:54:08.091Z,6.9
2017-09-27T00:55:09.716Z,5.9
2017-09-27T00:56:11.361Z,5.8
2017-09-27T00:57:12.952Z,6.1
2017-09-27T00:58:14.569Z,6.5
2017-09-27T00:59:16.188Z,6.8
2017-09-27T01:00:17.807Z,6.5
2017-09-27T01:01:19.425Z,6.2
2017-09-27T01:02:21.047Z,5.9
2017-09-27T01:03:22.667Z,6.0
2017-09-27T01:04:24.287Z,6.3
2017-09-27T01:05:25.910Z,7.7
2017-09-27T01:06:27.530Z,7.1
2017-09-27T01:07:29.148Z,7.0
2017-09-27T01:08:30.765Z,6.9
2017-09-27T01:09:32.387Z,7.2
2017-09-27T01:10:34.007Z,6.4
2017-09-27T01:11:35.629Z,6.7
2017-09-27T01:12:37.250Z,7.0
2017-09-27T01:13:38.867Z,7.0
2017-09-27T01:14:40.487Z,7.5
2017-09-27T01:15:42.108Z,7.2
2017-09-27T01:16:43.728Z,7.2
2017-09-27T01:17:45.349Z,7.3
2017-09-27T01:18:46.969Z,7.2
2017-09-27T01:19:48.588Z,7.1
2017-09-27T01:20:50.208Z,7.0
2017-09-27T01:21:51.824Z,7.2
2017-09-27T01:22:53.444Z,6.7
2017-09-27T01:23:55.065Z,7.2
2017-09-27T01:24:56.687Z,6.7
2017-09-27T01:25:58.306Z,7.5
2017-09-27T01:26:59.924Z,7.7
2017-09-27T01:28:01.543Z,7.1
2017-09-27T01:29:03.162Z,7.1
2017-09-27T01:30:04.782Z,7.1
2017-09-27T01:31:06.403Z,7.5
2017-09-27T01:32:08.022Z,6.9
2017-09-27T01:33:09.644Z,7.4
2017-09-27T01:34:11.262Z,7.1
2017-09-27T01:35:12.880Z,7.1
2017-09-27T01:36:14.498Z,7.2
2017-09-27T01:37:16.118Z,7.6
2017-09-27T01:38:17.739Z,7.6
2017-09-27T01:39:19.359Z,6.8
2017-09-27T01:40:20.979Z,7.4
2017-09-27T01:41:22.598Z,7.9
2017-09-27T01:42:24.218Z,7.8
2017-09-27T01:43:25.834Z,7.3
2017-09-27T01:44:27.451Z,7.9
2017-09-27T01:45:29.074Z,7.9
2017-09-27T01:46:30.694Z,8.0
2017-09-27T01:47:32.317Z,8.4
2017-09-27T01:48:33.935Z,8.3
2017-09-27T01:49:35.553Z,7.9
2017-09-27T01:50:37.170Z,8.2
2017-09-27T01:51:38.789Z,8.7
2017-09-27T01:52:40.408Z,8.3
2017-09-27T01:53:42.028Z,8.9
2017-09-27T01:54:43.649Z,9.2
2017-09-27T01:55:45.266Z,9.2
2017-09-27T01:56:46.888Z,8.9
2017-09-27T01:57:48.507Z,8.4
2017-09-27T01:58:50.124Z,8.4
2017-09-27T01:59:51.746Z,8.3
2017-09-27T02:00:53.371Z,7.2
2017-09-27T02:01:54.989Z,7.1
2017-09-27T02:02:56.606Z,7.2
2017-09-27T02:03:58.225Z,5.1
2017-09-27T02:04:59.846Z,5.4
2017-09-27T02:06:01.465Z,6.0
2017-09-27T02:07:03.085Z,6.0
2017-09-27T02:08:04.707Z,6.6
2017-09-27T02:09:06.325Z,6.8
2017-09-27T02:10:07.943Z,6.7
2017-09-27T02:11:09.562Z,6.8
2017-09-27T02:12:11.185Z,7.3
2017-09-27T02:13:12.805Z,7.5
2017-09-27T02:14:14.422Z,7.2
2017-09-27T02:15:16.043Z,7.2
2017-09-27T02:16:17.663Z,7.4
2017-09-27T02:17:19.279Z,7.7
2017-09-27T02:18:20.897Z,7.4
2017-09-27T02:19:22.516Z,7.4
2017-09-27T02:20:24.132Z,7.4
2017-09-27T02:21:25.751Z,6.8
2017-09-27T02:22:27.370Z,6.7
2017-09-27T02:23:28.997Z,6.9
2017-09-27T02:24:30.616Z,6.7
2017-09-27T02:25:32.235Z,6.6
2017-09-27T02:26:33.856Z,6.5
2017-09-27T02:27:35.475Z,6.5
2017-09-27T02:28:37.093Z,6.9
2017-09-27T02:29:38.715Z,6.8
2017-09-27T02:30:40.338Z,7.1
2017-09-27T02:31:41.953Z,6.6
2017-09-27T02:32:43.572Z,6.5
2017-09-27T02:33:45.190Z,7.6
2017-09-27T02:34:46.819Z,7.5
2017-09-27T02:35:48.429Z,6.8
2017-09-27T02:36:50.046Z,7.3
2017-09-27T02:37:51.670Z,6.8
2017-09-27T02:38:53.288Z,6.2
2017-09-27T02:39:54.905Z,6.9
2017-09-27T02:40:56.526Z,7.5
2017-09-27T02:41:58.148Z,7.4
2017-09-27T02:42:59.766Z,7.2
2017-09-27T02:44:01.386Z,7.5
2017-09-27T02:45:03.009Z,7.5
2017-09-27T02:46:04.627Z,7.3
2017-09-27T02:47:06.244Z,7.2
2017-09-27T02:48:07.863Z,7.5
2017-09-27T02:49:09.480Z,7.3
2017-09-27T02:50:11.100Z,6.8
2017-09-27T02:51:12.718Z,6.5
2017-09-27T02:52:14.340Z,6.8
2017-09-27T02:53:15.957Z,6.7
2017-09-27T02:54:17.577Z,7.5
2017-09-27T02:55:19.192Z,7.2
2017-09-27T02:56:20.812Z,7.4
2017-09-27T02:57:22.432Z,7.2
2017-09-27T02:58:24.052Z,7.4
2017-09-27T02:59:25.675Z,6.9
2017-09-27T03:00:27.294Z,7.6
2017-09-27T03:01:28.911Z,8.0
2017-09-27T03:02:30.535Z,7.5
2017-09-27T03:03:32.153Z,6.9
2017-09-27T03:04:33.775Z,8.0
2017-09-27T03:05:35.394Z,7.2
2017-09-27T03:06:37.014Z,7.7
2017-09-27T03:07:38.631Z,7.9
2017-09-27T03:08:40.248Z,7.4
2017-09-27T03:09:41.866Z,7.9
2017-09-27T03:10:43.486Z,8.0
2017-09-27T03:11:45.104Z,7.6
2017-09-27T03:12:46.724Z,8.2
2017-09-27T03:13:48.347Z,6.3
2017-09-27T03:14:49.965Z,6.0
2017-09-27T03:15:51.584Z,6.6
2017-09-27T03:16:53.202Z,6.7
2017-09-27T03:17:54.820Z,7.4
2017-09-27T03:18:56.440Z,7.9
2017-09-27T03:19:58.058Z,7.8
2017-09-27T03:20:59.679Z,8.2
2017-09-27T03:22:01.297Z,8.5
2017-09-27T03:23:02.914Z,8.2
2017-09-27T03:24:04.534Z,8.0
2017-09-27T03:25:06.154Z,8.4
2017-09-27T03:26:07.774Z,7.7
2017-09-27T03:27:09.391Z,8.8
2017-09-27T03:28:11.025Z,8.6
2017-09-27T03:29:12.639Z,8.2
2017-09-27T03:30:14.257Z,8.2
2017-09-27T03:31:15.875Z,8.1
2017-09-27T03:32:17.495Z,7.9
2017-09-27T03:33:19.114Z,8.1
2017-09-27T03:34:20.733Z,7.9
2017-09-27T03:35:22.352Z,7.9
2017-09-27T03:36:23.970Z,7.9
2017-09-27T03:37:25.590Z,7.8
2017-09-27T03:38:27.206Z,7.6
2017-09-27T03:39:28.833Z,7.9
2017-09-27T03:40:30.460Z,8.1
2017-09-27T03:41:32.081Z,8.0
2017-09-27T03:42:33.702Z,7.5
2017-09-27T03:43:35.321Z,7.2
2017-09-27T03:44:36.938Z,7.9
2017-09-27T03:45:38.558Z,8.3
2017-09-27T03:46:40.177Z,7.6
2017-09-27T03:47:41.796Z,7.4
2017-09-27T03:48:43.415Z,6.6
2017-09-27T03:49:45.039Z,7.0
2017-09-27T03:50:46.658Z,7.9
2017-09-27T03:51:48.275Z,8.0
2017-09-27T03:52:49.893Z,7.7
2017-09-27T03:53:51.512Z,8.0
2017-09-27T03:54:53.134Z,8.3
2017-09-27T03:55:54.759Z,8.5
2017-09-27T03:56:56.379Z,8.9
2017-09-27T03:57:57.995Z,8.2
2017-09-27T03:58:59.612Z,8.4
2017-09-27T04:00:01.235Z,8.1
2017-09-27T04:01:02.851Z,8.6
2017-09-27T04:02:04.469Z,8.9
2017-09-27T04:03:06.091Z,8.6
2017-09-27T04:04:07.714Z,8.2
2017-09-27T04:05:09.332Z,9.1
2017-09-27T04:06:10.951Z,9.3
2017-09-27T04:07:12.575Z,8.3
2017-09-27T04:08:14.190Z,9.0
2017-09-27T04:09:15.809Z,9.7
2017-09-27T04:10:17.431Z,9.0
2017-09-27T04:11:19.055Z,9.3
2017-09-27T04:12:20.670Z,9.6
2017-09-27T04:13:22.288Z,9.5
2017-09-27T04:14:23.910Z,9.9
2017-09-27T04:15:25.536Z,9.6
2017-09-27T04:16:27.148Z,9.9
2017-09-27T04:17:28.772Z,10.5
2017-09-27T04:18:30.393Z,9.5
2017-09-27T04:19:32.012Z,9.2
2017-09-27T04:20:33.634Z,8.8
2017-09-27T04:21:35.250Z,8.4
2017-09-27T04:22:36.869Z,8.2
2017-09-27T04:23:38.490Z,8.0
2017-09-27T04:24:40.109Z,9.3
2017-09-27T04:25:41.732Z,9.0
2017-09-27T04:26:43.352Z,8.7
2017-09-27T04:27:44.970Z,9.0
2017-09-27T04:28:46.591Z,8.9
2017-09-27T04:29:48.211Z,9.3
2017-09-27T04:30:49.831Z,8.7
2017-09-27T04:31:51.452Z,9.5
2017-09-27T04:32:53.077Z,8.9
2017-09-27T04:33:54.694Z,9.2
2017-09-27T04:34:56.314Z,9.3
2017-09-27T04:35:57.937Z,9.1
2017-09-27T04:36:59.554Z,8.7
2017-09-27T04:38:01.177Z,9.3
2017-09-27T04:39:02.810Z,8.7
2017-09-27T04:40:04.432Z,8.4
2017-09-27T04:41:06.066Z,8.6
2017-09-27T04:42:07.682Z,7.4
2017-09-27T04:43:09.302Z,9.0
2017-09-27T04:44:10.920Z,8.5
2017-09-27T04:45:12.540Z,9.5
2017-09-27T04:46:14.164Z,9.4
2017-09-27T04:47:15.830Z,9.7
2017-09-27T04:48:17.446Z,9.4
2017-09-27T04:49:19.068Z,9.7
2017-09-27T04:50:20.687Z,9.8
2017-09-27T04:51:22.306Z,10.6
2017-09-27T04:52:23.929Z,9.1
2017-09-27T04:53:25.548Z,8.2
2017-09-27T04:54:27.165Z,8.1
2017-09-27T04:55:28.784Z,8.2
2017-09-27T04:56:30.404Z,8.2
2017-09-27T04:57:32.019Z,8.4
2017-09-27T04:58:33.636Z,7.5
2017-09-27T04:59:35.255Z,6.9
2017-09-27T05:00:36.876Z,6.6
2017-09-27T05:01:38.495Z,7.6
2017-09-27T05:02:40.112Z,7.3
2017-09-27T05:03:41.826Z,7.9
2017-09-27T05:04:43.443Z,8.7
2017-09-27T05:05:45.061Z,8.1
2017-09-27T05:06:46.681Z,8.9
2017-09-27T05:07:48.302Z,8.6
2017-09-27T05:08:49.925Z,8.4
2017-09-27T05:09:51.542Z,8.4
2017-09-27T05:10:53.166Z,8.1
2017-09-27T05:11:54.784Z,8.7
2017-09-27T05:12:56.406Z,8.9
2017-09-27T05:13:58.035Z,9.1
2017-09-27T05:14:59.656Z,10.2
2017-09-27T05:16:01.279Z,10.0
2017-09-27T05:17:02.897Z,10.0
2017-09-27T05:18:04.517Z,9.5
2017-09-27T05:19:06.141Z,10.7
2017-09-27T05:20:07.761Z,9.2
2017-09-27T05:21:09.382Z,9.4
2017-09-27T05:22:11.029Z,10.4
2017-09-27T05:23:12.628Z,10.1
2017-09-27T05:24:14.249Z,10.2
2017-09-27T05:25:15.871Z,10.6
2017-09-27T05:26:17.517Z,9.6
2017-09-27T05:27:19.131Z,10.8
2017-09-27T05:28:20.753Z,11.3
2017-09-27T05:29:22.384Z,11.4
2017-09-27T05:30:24.007Z,10.7
2017-09-27T05:31:25.629Z,11.6
2017-09-27T05:32:27.253Z,11.6
2017-09-27T05:33:28.876Z,11.5
2017-09-27T05:34:30.498Z,11.0
2017-09-27T05:35:32.123Z,12.1
2017-09-27T05:36:33.749Z,12.3
2017-09-27T05:37:35.376Z,11.7
2017-09-27T05:38:36.995Z,11.6
2017-09-27T05:39:38.619Z,12.4
2017-09-27T05:40:40.246Z,11.7
2017-09-27T05:41:41.869Z,12.7
2017-09-27T05:42:43.488Z,12.7
2017-09-27T05:43:45.112Z,12.4
2017-09-27T05:44:46.738Z,12.4
2017-09-27T05:45:48.364Z,13.8
2017-09-27T05:46:49.985Z,14.1
2017-09-27T05:47:51.611Z,14.6
2017-09-27T05:48:53.233Z,15.1
2017-09-27T05:49:54.879Z,13.9
2017-09-27T05:50:56.505Z,14.5
2017-09-27T05:51:58.162Z,14.3
2017-09-27T05:52:59.838Z,14.3
2017-09-27T05:54:01.464Z,12.8
2017-09-27T05:55:03.092Z,13.4
2017-09-27T05:56:04.750Z,12.7
2017-09-27T05:57:06.370Z,12.4
2017-09-27T05:58:08.000Z,12.6
2017-09-27T05:59:09.623Z,12.8
2017-09-27T06:00:11.250Z,12.2
2017-09-27T06:01:12.872Z,12.4
2017-09-27T06:02:14.493Z,12.4
2017-09-27T06:03:16.118Z,11.5
2017-09-27T06:04:17.744Z,11.8
2017-09-27T06:05:19.373Z,11.4
2017-09-27T06:06:21.000Z,12.0
2017-09-27T06:07:22.619Z,12.1
2017-09-27T06:08:24.245Z,11.9
2017-09-27T06:09:25.868Z,12.7
2017-09-27T06:10:27.495Z,12.8
2017-09-27T06:11:29.119Z,13.3
2017-09-27T06:12:30.740Z,13.2
2017-09-27T06:13:32.366Z,12.4
2017-09-27T06:14:33.994Z,12.6
2017-09-27T06:15:35.616Z,13.7
2017-09-27T06:16:37.238Z,12.4
2017-09-27T06:17:38.864Z,13.5
2017-09-27T06:18:40.485Z,14.0
2017-09-27T06:19:42.112Z,14.0
2017-09-27T06:20:43.740Z,13.6
2017-09-27T06:21:45.361Z,13.7
2017-09-27T06:22:46.985Z,13.0
2017-09-27T06:23:48.609Z,12.8
2017-09-27T06:24:50.231Z,13.5
2017-09-27T06:25:51.859Z,12.5
2017-09-27T06:26:53.484Z,12.6
2017-09-27T06:27:55.110Z,13.3
2017-09-27T06:28:56.743Z,12.1
2017-09-27T06:29:58.366Z,13.3
2017-09-27T06:30:59.998Z,13.3
2017-09-27T06:32:01.624Z,12.3
2017-09-27T06:33:03.250Z,13.7
2017-09-27T06:34:04.874Z,13.4
2017-09-27T06:35:06.510Z,13.5
2017-09-27T06:36:08.133Z,14.0
2017-09-27T06:37:09.757Z,13.7
2017-09-27T06:38:11.387Z,13.6
2017-09-27T06:39:13.010Z,13.4
2017-09-27T06:40:14.635Z,13.0
2017-09-27T06:41:16.260Z,13.9
2017-09-27T06:42:17.887Z,13.9
2017-09-27T06:43:19.515Z,14.1
2017-09-27T06:44:21.140Z,13.3
2017-09-27T06:45:22.765Z,13.7
2017-09-27T06:46:24.388Z,13.4
2017-09-27T06:47:26.019Z,13.6
2017-09-27T06:48:27.644Z,13.0
2017-09-27T06:49:29.271Z,14.2
2017-09-27T06:50:30.892Z,12.5
2017-09-27T06:51:32.520Z,13.1
2017-09-27T06:52:34.148Z,13.3
2017-09-27T06:53:35.768Z,13.3
2017-09-27T06:54:37.405Z,13.4
2017-09-27T06:55:39.033Z,12.8
2017-09-27T06:56:40.667Z,14.4
2017-09-27T06:57:42.291Z,14.2
2017-09-27T06:58:43.918Z,13.5
2017-09-27T06:59:45.548Z,13.8
2017-09-27T07:00:47.169Z,14.3
2017-09-27T07:01:48.801Z,14.5
2017-09-27T07:02:50.425Z,12.6
2017-09-27T07:03:52.053Z,13.2
2017-09-27T07:04:53.681Z,13.7
2017-09-27T07:05:55.305Z,13.6
2017-09-27T07:06:56.932Z,13.9
2017-09-27T07:07:58.561Z,13.5
2017-09-27T07:09:00.190Z,14.4
2017-09-27T07:10:01.818Z,14.1
2017-09-27T07:11:03.446Z,14.0
2017-09-27T07:12:05.072Z,13.6
2017-09-27T07:13:06.698Z,15.1
2017-09-27T07:14:08.327Z,14.6
2017-09-27T07:15:09.954Z,13.9
2017-09-27T07:16:11.585Z,14.9
2017-09-27T07:17:13.210Z,14.4
2017-09-27T07:18:14.842Z,14.4
2017-09-27T07:19:16.469Z,14.3
2017-09-27T07:20:18.095Z,15.2
2017-09-27T07:21:19.722Z,15.9
2017-09-27T07:22:21.351Z,16.1
2017-09-27T07:23:22.982Z,17.8
2017-09-27T07:24:24.608Z,15.4
2017-09-27T07:25:26.237Z,15.2
2017-09-27T07:26:27.861Z,16.1
2017-09-27T07:27:29.492Z,16.1
2017-09-27T07:28:31.121Z,15.6
2017-09-27T07:29:32.752Z,15.4
2017-09-27T07:30:34.382Z,15.7
2017-09-27T07:31:36.041Z,17.0
2017-09-27T07:32:37.678Z,16.5
2017-09-27T07:33:39.297Z,16.0
2017-09-27T07:34:40.927Z,16.4
2017-09-27T07:35:42.553Z,16.0
2017-09-27T07:36:44.182Z,17.1
2017-09-27T07:37:45.810Z,17.3
2017-09-27T07:38:47.440Z,17.0
2017-09-27T07:39:49.069Z,17.9
2017-09-27T07:40:50.705Z,17.4
2017-09-27T07:41:52.333Z,17.6
2017-09-27T07:42:53.964Z,17.8
2017-09-27T07:43:55.600Z,17.2
2017-09-27T07:44:57.225Z,18.0
2017-09-27T07:45:58.857Z,17.9
2017-09-27T07:47:00.484Z,18.1
2017-09-27T07:48:02.119Z,16.7
2017-09-27T07:49:03.748Z,18.2
2017-09-27T07:50:05.387Z,18.3
2017-09-27T07:51:07.017Z,18.3
2017-09-27T07:52:08.649Z,19.4
2017-09-27T07:53:10.282Z,18.2
2017-09-27T07:54:11.913Z,18.5
2017-09-27T07:55:13.542Z,18.1
2017-09-27T07:56:15.173Z,18.5
2017-09-27T07:57:16.805Z,19.2
2017-09-27T07:58:18.439Z,18.8
2017-09-27T07:59:20.092Z,18.5
2017-09-27T08:00:21.721Z,18.1
2017-09-27T08:01:23.357Z,18.7
2017-09-27T08:02:24.987Z,18.4
2017-09-27T08:03:26.617Z,18.7
2017-09-27T08:04:28.249Z,17.7
2017-09-27T08:05:29.880Z,17.7
2017-09-27T08:06:31.512Z,18.2
2017-09-27T08:07:33.149Z,17.1
2017-09-27T08:08:34.796Z,17.3
2017-09-27T08:09:36.483Z,19.2
2017-09-27T08:10:38.115Z,17.6
2017-09-27T08:11:39.747Z,16.3
2017-09-27T08:12:41.388Z,17.3
2017-09-27T08:13:43.012Z,17.9
2017-09-27T08:14:44.649Z,18.3
2017-09-27T08:15:46.363Z,17.7
2017-09-27T08:16:48.003Z,17.6
2017-09-27T08:17:49.635Z,17.4
2017-09-27T08:18:51.268Z,18.3
2017-09-27T08:19:52.899Z,17.0
2017-09-27T08:20:54.532Z,17.5
2017-09-27T08:21:56.167Z,16.9
2017-09-27T08:22:57.800Z,18.3
2017-09-27T08:23:59.430Z,17.7
2017-09-27T08:25:01.063Z,17.6
2017-09-27T08:26:02.696Z,17.7
2017-09-27T08:27:04.343Z,18.0
2017-09-27T08:28:05.975Z,18.0
2017-09-27T08:29:07.609Z,18.3
2017-09-27T08:30:09.249Z,18.1
2017-09-27T08:31:10.875Z,18.3
2017-09-27T08:32:12.508Z,17.9
2017-09-27T08:33:14.141Z,17.9
2017-09-27T08:34:15.772Z,18.0
2017-09-27T08:35:17.407Z,18.4
2017-09-27T08:36:19.039Z,18.6
2017-09-27T08:37:20.675Z,18.1
2017-09-27T08:38:22.306Z,16.0
2017-09-27T08:39:23.940Z,17.6
2017-09-27T08:40:25.569Z,16.9
2017-09-27T08:41:27.206Z,16.8
2017-09-27T08:42:28.837Z,17.1
2017-09-27T08:43:30.470Z,16.7
2017-09-27T08:44:32.106Z,17.0
2017-09-27T08:45:33.737Z,16.8
2017-09-27T08:46:35.370Z,17.3
2017-09-27T08:47:36.997Z,16.7
2017-09-27T08:48:38.639Z,17.3
2017-09-27T08:49:40.270Z,16.2
2017-09-27T08:50:41.904Z,16.4
2017-09-27T08:51:43.540Z,16.9
2017-09-27T08:52:45.173Z,17.3
2017-09-27T08:53:46.816Z,17.0
2017-09-27T08:54:48.448Z,16.6
2017-09-27T08:55:50.082Z,16.2
2017-09-27T08:56:51.713Z,16.9
2017-09-27T08:57:53.345Z,16.8
2017-09-27T08:58:54.983Z,16.7
2017-09-27T08:59:56.621Z,16.5
2017-09-27T09:00:58.250Z,16.6
2017-09-27T09:01:59.881Z,17.1
2017-09-27T09:03:01.511Z,16.3
2017-09-27T09:04:03.149Z,17.4
2017-09-27T09:05:04.782Z,16.0
2017-09-27T09:06:06.427Z,17.2
2017-09-27T09:07:08.056Z,17.3
2017-09-27T09:08:09.687Z,17.6
2017-09-27T09:09:11.318Z,16.8
2017-09-27T09:10:12.948Z,18.2
2017-09-27T09:11:14.580Z,18.2
2017-09-27T09:12:16.216Z,17.6
2017-09-27T09:13:17.854Z,17.7
2017-09-27T09:14:19.485Z,17.9
2017-09-27T09:15:21.112Z,17.1
2017-09-27T09:16:22.744Z,17.1
2017-09-27T09:17:24.376Z,17.4
2017-09-27T09:18:26.006Z,17.9
2017-09-27T09:19:27.641Z,17.1
2017-09-27T09:20:29.274Z,16.9
2017-09-27T09:21:30.918Z,16.6
2017-09-27T09:22:32.583Z,17.0
2017-09-27T09:23:34.177Z,16.9
2017-09-27T09:24:35.809Z,16.6
2017-09-27T09:25:37.444Z,17.7
2017-09-27T09:26:39.076Z,18.1
2017-09-27T09:27:40.711Z,17.7
2017-09-27T09:28:42.342Z,17.2
2017-09-27T09:29:43.974Z,18.2
2017-09-27T09:30:45.610Z,17.5
2017-09-27T09:31:47.239Z,17.1
2017-09-27T09:32:48.875Z,16.6
2017-09-27T09:33:50.509Z,16.4
2017-09-27T09:34:52.142Z,16.3
2017-09-27T09:35:53.774Z,16.9
2017-09-27T09:36:55.406Z,16.2
2017-09-27T09:37:57.040Z,16.2
2017-09-27T09:38:58.673Z,16.4
2017-09-27T09:40:00.314Z,16.7
2017-09-27T09:41:01.948Z,17.5
2017-09-27T09:42:03.581Z,16.7
2017-09-27T09:43:05.210Z,16.5
2017-09-27T09:44:06.876Z,17.0
2017-09-27T09:45:08.507Z,17.2
2017-09-27T09:46:10.135Z,15.9
2017-09-27T09:47:11.769Z,17.4
2017-09-27T09:48:13.399Z,17.7
2017-09-27T09:49:15.033Z,17.0
2017-09-27T09:50:16.661Z,16.3
2017-09-27T09:51:18.293Z,16.0
2017-09-27T09:52:19.923Z,17.0
2017-09-27T09:53:21.554Z,16.0
2017-09-27T09:54:23.190Z,15.2
2017-09-27T09:55:24.829Z,15.2
2017-09-27T09:56:26.460Z,15.8
2017-09-27T09:57:28.094Z,15.4
2017-09-27T09:58:29.730Z,15.8
2017-09-27T09:59:31.393Z,15.3
2017-09-27T10:00:33.010Z,15.1
2017-09-27T10:01:34.643Z,16.5
2017-09-27T10:02:36.274Z,16.9
2017-09-27T10:03:37.908Z,15.8
2017-09-27T10:04:39.536Z,15.3
2017-09-27T10:05:41.165Z,15.4
2017-09-27T10:06:42.795Z,15.4
2017-09-27T10:07:44.425Z,15.5
2017-09-27T10:08:46.056Z,16.3
2017-09-27T10:09:47.689Z,15.8
2017-09-27T10:10:49.326Z,15.8
2017-09-27T10:11:50.959Z,15.1
2017-09-27T10:12:52.584Z,15.0
2017-09-27T10:13:54.217Z,14.9
2017-09-27T10:14:55.852Z,14.4
2017-09-27T10:15:57.484Z,14.8
2017-09-27T10:16:59.117Z,15.3
2017-09-27T10:18:00.749Z,15.4
2017-09-27T10:19:02.376Z,14.8
2017-09-27T10:20:04.007Z,14.3
2017-09-27T10:21:05.638Z,14.2
2017-09-27T10:22:07.271Z,15.2
2017-09-27T10:23:08.904Z,14.6
2017-09-27T10:24:10.538Z,14.3
2017-09-27T10:25:12.170Z,14.5
2017-09-27T10:26:13.799Z,13.6
2017-09-27T10:27:15.430Z,14.7
2017-09-27T10:28:17.066Z,14.4
2017-09-27T10:29:18.697Z,14.8
2017-09-27T10:30:20.329Z,14.2
2017-09-27T10:31:21.960Z,14.9
2017-09-27T10:32:23.600Z,15.1
2017-09-27T10:33:25.231Z,14.7
2017-09-27T10:34:26.865Z,14.2
2017-09-27T10:35:28.495Z,14.0
2017-09-27T10:36:30.127Z,13.8
2017-09-27T10:37:31.762Z,14.1
2017-09-27T10:38:33.396Z,14.4
2017-09-27T10:39:35.029Z,14.2
2017-09-27T10:40:36.665Z,14.5
2017-09-27T10:41:38.292Z,14.4
2017-09-27T10:42:39.923Z,14.7
2017-09-27T10:43:41.564Z,14.0
2017-09-27T10:44:43.189Z,13.8
2017-09-27T10:45:44.824Z,14.5
2017-09-27T10:46:46.457Z,13.8
2017-09-27T10:47:48.088Z,13.9
2017-09-27T10:48:49.718Z,14.7
2017-09-27T10:49:51.349Z,14.7
2017-09-27T10:50:52.983Z,14.1
2017-09-27T10:51:54.614Z,13.7
2017-09-27T10:52:56.248Z,14.1
2017-09-27T10:53:57.885Z,13.8
2017-09-27T10:54:59.523Z,13.6
2017-09-27T10:56:01.148Z,14.3
2017-09-27T10:57:02.781Z,13.0
2017-09-27T10:58:04.412Z,13.4
2017-09-27T10:59:06.049Z,14.2
2017-09-27T11:00:07.683Z,14.3
2017-09-27T11:01:09.315Z,13.4
2017-09-27T11:02:10.945Z,14.0
2017-09-27T11:03:12.582Z,13.9
2017-09-27T11:04:14.218Z,14.1
2017-09-27T11:05:15.845Z,13.4
2017-09-27T11:06:17.540Z,14.6
2017-09-27T11:07:19.122Z,14.2
2017-09-27T11:08:20.754Z,12.6
2017-09-27T11:09:22.390Z,12.6
2017-09-27T11:10:24.021Z,13.8
2017-09-27T11:11:25.654Z,13.4
2017-09-27T11:12:27.284Z,14.1
2017-09-27T11:13:28.921Z,14.0
2017-09-27T11:14:30.556Z,14.0
2017-09-27T11:15:32.196Z,13.3
2017-09-27T11:16:33.829Z,13.3
2017-09-27T11:17:35.466Z,13.5
2017-09-27T11:18:37.104Z,12.9
2017-09-27T11:19:38.744Z,12.3
2017-09-27T11:20:40.382Z,13.2
2017-09-27T11:21:42.020Z,13.5
2017-09-27T11:22:43.658Z,12.8
2017-09-27T11:23:45.297Z,13.4
2017-09-27T11:24:46.946Z,13.4
2017-09-27T11:25:48.585Z,12.9
2017-09-27T11:26:50.226Z,12.4
2017-09-27T11:27:51.867Z,12.3
2017-09-27T11:28:53.505Z,12.1
2017-09-27T11:29:55.148Z,12.3
2017-09-27T11:30:56.786Z,12.9
2017-09-27T11:31:58.426Z,13.3
2017-09-27T11:33:00.070Z,12.4
2017-09-27T11:34:01.709Z,13.1
2017-09-27T11:35:03.357Z,14.5
2017-09-27T11:36:04.994Z,14.2
2017-09-27T11:37:06.637Z,13.9
2017-09-27T11:38:08.277Z,13.1
2017-09-27T11:39:09.919Z,12.9
2017-09-27T11:40:11.598Z,12.5
2017-09-27T11:41:13.241Z,12.3
2017-09-27T11:42:14.885Z,12.7
2017-09-27T11:43:16.530Z,13.5
2017-09-27T11:44:18.177Z,14.0
2017-09-27T11:45:19.816Z,12.9
2017-09-27T11:46:21.459Z,13.1
2017-09-27T11:47:23.104Z,13.7
2017-09-27T11:48:24.753Z,13.3
2017-09-27T11:49:26.396Z,14.1
2017-09-27T11:50:28.039Z,13.2
2017-09-27T11:51:29.685Z,14.2
2017-09-27T11:52:31.330Z,14.5
2017-09-27T11:53:32.968Z,15.1
2017-09-27T11:54:34.611Z,15.2
2017-09-27T11:55:36.256Z,14.7
2017-09-27T11:56:37.899Z,14.7
2017-09-27T11:57:39.544Z,13.7
2017-09-27T11:58:41.186Z,14.0
2017-09-27T11:59:42.828Z,13.8
2017-09-27T12:00:44.469Z,13.9
2017-09-27T12:01:46.113Z,13.9
2017-09-27T12:02:47.757Z,14.4
2017-09-27T12:03:49.398Z,14.3
2017-09-27T12:04:51.043Z,13.0
2017-09-27T12:05:52.688Z,14.6
2017-09-27T12:06:54.332Z,14.8
2017-09-27T12:07:55.975Z,14.0
2017-09-27T12:08:57.645Z,14.1
2017-09-27T12:09:59.289Z,14.9
2017-09-27T12:11:00.936Z,14.4
2017-09-27T12:12:02.581Z,13.3
2017-09-27T12:13:04.223Z,14.1
2017-09-27T12:14:05.876Z,13.8
2017-09-27T12:15:07.509Z,13.8
2017-09-27T12:16:09.151Z,13.3
2017-09-27T12:17:10.795Z,14.2
2017-09-27T12:18:12.439Z,14.3
2017-09-27T12:19:14.130Z,13.2
2017-09-27T12:20:15.778Z,13.2
2017-09-27T12:21:17.423Z,14.0
2017-09-27T12:22:19.068Z,14.1
2017-09-27T12:23:20.706Z,13.9
2017-09-27T12:24:22.350Z,12.7
2017-09-27T12:25:23.993Z,12.5
2017-09-27T12:26:25.640Z,12.7
2017-09-27T12:27:27.465Z,12.4
2017-09-27T12:28:29.106Z,12.8
2017-09-27T12:29:30.748Z,13.7
2017-09-27T12:30:32.392Z,14.7
2017-09-27T12:31:34.035Z,14.0
2017-09-27T12:32:35.683Z,13.7
2017-09-27T12:33:37.322Z,13.3
2017-09-27T12:34:38.966Z,13.7
2017-09-27T12:35:40.609Z,14.2
2017-09-27T12:36:42.251Z,13.7
2017-09-27T12:37:43.895Z,12.8
2017-09-27T12:38:45.537Z,14.0
2017-09-27T12:39:47.185Z,13.7
2017-09-27T12:40:48.834Z,14.1
2017-09-27T12:41:50.480Z,13.8
2017-09-27T12:42:52.123Z,13.1
2017-09-27T12:43:53.768Z,13.8
2017-09-27T12:44:55.416Z,12.2
2017-09-27T12:45:57.060Z,11.8
2017-09-27T12:46:58.703Z,12.2
2017-09-27T12:48:00.350Z,11.8
2017-09-27T12:49:02.252Z,11.8
2017-09-27T12:50:03.732Z,11.9
2017-09-27T12:51:05.378Z,10.5
2017-09-27T12:52:07.019Z,11.6
2017-09-27T12:53:08.665Z,11.5
2017-09-27T12:54:10.308Z,12.1
2017-09-27T12:55:11.949Z,12.3
2017-09-27T12:56:13.593Z,11.7
2017-09-27T12:57:16.726Z,12.6
2017-09-27T12:58:18.195Z,13.5
2017-09-27T12:59:20.774Z,12.6
2017-09-27T13:00:22.416Z,12.8
2017-09-27T13:01:24.057Z,13.7
2017-09-27T13:02:25.696Z,12.7
2017-09-27T13:03:27.352Z,11.6
2017-09-27T13:04:28.983Z,12.2
2017-09-27T13:05:30.814Z,12.5
2017-09-27T13:06:32.399Z,13.5
2017-09-27T13:07:34.761Z,13.2
2017-09-27T13:08:36.405Z,12.3
2017-09-27T13:09:38.045Z,14.0
2017-09-27T13:10:39.702Z,12.4
2017-09-27T13:11:41.340Z,12.5
2017-09-27T13:12:42.984Z,12.5
2017-09-27T13:13:44.620Z,12.6
2017-09-27T13:14:46.261Z,13.3
2017-09-27T13:15:47.926Z,14.0
2017-09-27T13:16:49.588Z,13.9
2017-09-27T13:17:51.240Z,14.4
2017-09-27T13:18:52.894Z,14.4
2017-09-27T13:19:54.816Z,13.7
2017-09-27T13:20:56.465Z,14.3
2017-09-27T13:21:58.109Z,14.0
2017-09-27T13:22:59.754Z,13.8
2017-09-27T13:24:01.397Z,14.1
2017-09-27T13:25:03.048Z,13.9
2017-09-27T13:26:08.373Z,14.0
2017-09-27T13:27:09.553Z,13.4
2017-09-27T13:28:11.195Z,15.0
2017-09-27T13:29:12.837Z,13.6
2017-09-27T13:30:14.482Z,15.6
2017-09-27T13:31:16.119Z,15.2
2017-09-27T13:32:17.760Z,10.8
2017-09-27T13:33:19.401Z,10.0
2017-09-27T13:34:21.040Z,12.3
2017-09-27T13:35:22.683Z,10.6
2017-09-27T13:36:24.322Z,10.7
2017-09-27T13:37:25.964Z,11.1
2017-09-27T13:38:27.785Z,13.8
2017-09-27T13:39:29.429Z,13.8
2017-09-27T13:40:31.065Z,12.4
2017-09-27T13:41:32.707Z,12.5
2017-09-27T13:42:34.346Z,13.9
2017-09-27T13:43:35.987Z,13.5
2017-09-27T13:44:37.629Z,12.5
2017-09-27T13:45:39.271Z,12.7
2017-09-27T13:46:40.924Z,12.8
2017-09-27T13:47:42.565Z,12.8
2017-09-27T13:48:44.204Z,13.6
2017-09-27T13:49:45.841Z,12.5
2017-09-27T13:50:47.481Z,13.4